Time;durP1;ratioP1;P1;durP2;ratioP2;P2;SDS_P1;SDS_P2;PMS_P1;PMS_P2;Temp;Humidity;BMP_temperature;BMP_pressure;BME280_temperature;BME280_humidity;BME280_pressure;Samples;Min_cycle;Max_cycle;Signal;HPM_P1;HPM_P2
2022/05/01 00:02:19;;;;;;;;;;;;;;;12.31;78.89;95260.47;4898147;29;19975;-86
2022/05/01 00:04:46;;;;;;;;;;;;;;;12.24;79.06;95269.84;4898056;29;20306;-85
2022/05/01 00:07:14;;;;;;;;;;;;;;;12.33;78.91;95269.88;4897814;29;19934;-85
2022/05/01 00:09:41;;;;;;;;;;;;;;;12.29;78.59;95271.13;4897888;29;19939;-85
2022/05/01 00:12:08;;;;;;;;;;;;;;;12.08;78.69;95265.88;4897679;29;19927;-85
2022/05/01 00:14:35;;;;;;;;;;;;;;;11.87;79.92;95266.88;4898174;29;19928;-85
2022/05/01 00:17:01;;;;;;;;;;;;;;;11.84;80.95;95265.31;4897730;29;19928;-85
2022/05/01 00:19:28;;;;;;;;;;;;;;;11.56;82.34;95255.38;4897811;29;19928;-85
2022/05/01 00:21:56;;;;;;;;;;;;;;;11.33;83.05;95252.88;4898006;29;19927;-85
2022/05/01 00:24:24;;;;;;;;;;;;;;;11.39;84.30;95249.75;4897596;29;19934;-85
2022/05/01 00:26:51;;;;;;;;;;;;;;;11.43;84.17;95242.44;4895351;29;19928;-85
2022/05/01 00:29:17;;;;;;;;;;;;;;;11.60;84.03;95239.25;4897886;29;19933;-85
2022/05/01 00:31:44;;;;;;;;;;;;;;;11.84;83.29;95253.97;4897668;29;19927;-85
2022/05/01 00:36:55;;;;;;;;;;;;;;;12.11;81.59;95259.53;4897657;29;20041;-85
2022/05/01 00:39:21;;;;;;;;;;;;;;;12.21;81.42;95249.06;4897352;29;19934;-85
2022/05/01 00:41:49;;;;;;;;;;;;;;;12.32;80.77;95244.53;4897718;29;19934;-85
2022/05/01 00:44:17;;;;;;;;;;;;;;;12.39;79.66;95242.22;4897542;29;19928;-85
2022/05/01 00:46:44;;;;;;;;;;;;;;;12.33;79.73;95248.84;4897284;29;19927;-85
2022/05/01 00:49:12;;;;;;;;;;;;;;;12.26;79.81;95247.69;4897626;29;19938;-85
2022/05/01 00:51:41;;;;;;;;;;;;;;;12.28;79.27;95251.03;4897357;29;19928;-85
2022/05/01 00:54:08;;;;;;;;;;;;;;;12.36;79.10;95253.00;4900754;29;19987;-85
2022/05/01 00:56:35;;;;;;;;;;;;;;;12.43;79.38;95250.66;4901187;29;19983;-85
2022/05/01 00:59:03;;;;;;;;;;;;;;;12.46;79.11;95247.78;4901261;29;19932;-85
2022/05/01 01:01:29;;;;;;;;;;;;;;;12.54;79.08;95247.97;4901281;29;19983;-86
2022/05/01 01:03:56;;;;;;;;;;;;;;;12.05;80.72;95245.09;4899238;29;19927;-85
2022/05/01 01:06:23;;;;;;;;;;;;;;;12.07;81.15;95250.22;4900900;29;19943;-85
2022/05/01 01:08:49;;;;;;;;;;;;;;;12.06;81.36;95248.56;4901237;29;19928;-84
2022/05/01 01:11:16;;;;;;;;;;;;;;;12.24;80.92;95246.16;4901066;29;20306;-85
2022/05/01 01:13:43;;;;;;;;;;;;;;;12.31;79.87;95250.78;4900834;29;19935;-85
2022/05/01 01:16:11;;;;;;;;;;;;;;;12.34;80.20;95250.50;4901203;29;19950;-85
2022/05/01 01:18:39;;;;;;;;;;;;;;;12.36;79.58;95248.56;4900979;29;19927;-85
2022/05/01 01:21:09;;;;;;;;;;;;;;;12.40;79.75;95249.97;4900853;29;19928;-85
2022/05/01 01:23:36;;;;;;;;;;;;;;;12.43;78.88;95250.66;4900869;29;20387;-84
2022/05/01 01:26:04;;;;;;;;;;;;;;;12.36;79.22;95243.31;4900726;29;19933;-85
2022/05/01 01:28:31;;;;;;;;;;;;;;;12.21;79.03;95244.63;4900947;29;19934;-85
2022/05/01 01:33:43;;;;;;;;;;;;;;;11.64;83.68;95229.31;4900786;29;19934;-85
2022/05/01 01:36:11;;;;;;;;;;;;;;;11.77;82.15;95236.03;4900735;29;19971;-85
2022/05/01 01:38:39;;;;;;;;;;;;;;;11.64;83.85;95230.16;4900593;29;19927;-84
2022/05/01 01:41:11;;;;;;;;;;;;;;;11.45;85.11;95230.84;4900488;29;19966;-85
2022/05/01 01:43:38;;;;;;;;;;;;;;;11.49;85.83;95234.88;4900397;29;19953;-85
2022/05/01 01:46:05;;;;;;;;;;;;;;;11.21;86.92;95232.03;4900678;29;19931;-85
2022/05/01 01:48:31;;;;;;;;;;;;;;;11.38;86.25;95227.06;4900649;29;20406;-85
2022/05/01 01:50:58;;;;;;;;;;;;;;;11.54;85.03;95223.97;4898324;29;20017;-85
2022/05/01 01:53:27;;;;;;;;;;;;;;;11.41;85.89;95231.22;4900142;29;19934;-85
2022/05/01 01:55:54;;;;;;;;;;;;;;;11.44;84.37;95229.19;4900308;29;20010;-85
2022/05/01 01:58:20;;;;;;;;;;;;;;;11.26;86.77;95214.09;4900169;29;19934;-85
2022/05/01 02:00:47;;;;;;;;;;;;;;;11.34;86.40;95223.03;4900319;29;19927;-84
2022/05/01 02:03:14;;;;;;;;;;;;;;;11.50;85.38;95222.56;4900173;29;20367;-84
2022/05/01 02:05:40;;;;;;;;;;;;;;;11.56;85.23;95223.84;4900360;29;19927;-85
2022/05/01 02:08:07;;;;;;;;;;;;;;;11.64;83.96;95230.16;4900366;29;20280;-84
2022/05/01 02:10:36;;;;;;;;;;;;;;;11.70;83.97;95234.91;4900287;29;19950;-85
2022/05/01 02:13:03;;;;;;;;;;;;;;;11.79;83.31;95226.25;4899901;29;20344;-85
2022/05/01 02:15:30;;;;;;;;;;;;;;;11.85;83.29;95224.91;4900401;29;19928;-85
2022/05/01 02:17:58;;;;;;;;;;;;;;;11.94;82.47;95228.56;4900483;29;19927;-85
2022/05/01 02:20:25;;;;;;;;;;;;;;;11.94;81.37;95215.41;4897972;29;19928;-85
2022/05/01 02:22:52;;;;;;;;;;;;;;;11.89;81.64;95213.19;4899943;29;20035;-85
2022/05/01 02:25:20;;;;;;;;;;;;;;;11.91;81.27;95215.69;4899677;29;19979;-85
2022/05/01 02:27:48;;;;;;;;;;;;;;;11.93;81.42;95230.38;4899577;29;19928;-85
2022/05/01 02:30:14;;;;;;;;;;;;;;;11.94;81.62;95221.50;4899892;29;19927;-84
2022/05/01 02:32:41;;;;;;;;;;;;;;;11.96;81.40;95224.00;4899651;29;19928;-85
2022/05/01 02:35:10;;;;;;;;;;;;;;;11.97;81.30;95236.19;4899835;29;19950;-84
2022/05/01 02:37:36;;;;;;;;;;;;;;;11.91;81.44;95227.03;4899445;29;20375;-84
2022/05/01 02:40:03;;;;;;;;;;;;;;;11.87;81.26;95217.75;4897326;29;20399;-85
2022/05/01 02:42:30;;;;;;;;;;;;;;;11.81;81.76;95222.66;4899530;29;20305;-85
2022/05/01 02:44:59;;;;;;;;;;;;;;;11.78;82.20;95218.50;4899790;29;19928;-85
2022/05/01 02:47:25;;;;;;;;;;;;;;;11.67;82.57;95216.75;4899185;29;19928;-85
2022/05/01 02:49:52;;;;;;;;;;;;;;;11.62;83.57;95216.31;4899080;29;19932;-84
2022/05/01 02:52:19;;;;;;;;;;;;;;;11.27;87.49;95206.06;4898974;29;19944;-84
2022/05/01 02:54:46;;;;;;;;;;;;;;;11.46;87.57;95202.78;4899641;29;20296;-84
2022/05/01 02:57:13;;;;;;;;;;;;;;;11.59;85.91;95203.44;4899270;29;20010;-85
2022/05/01 02:59:40;;;;;;;;;;;;;;;11.67;85.93;95210.66;4899397;29;19928;-84
2022/05/01 03:02:08;;;;;;;;;;;;;;;11.63;85.57;95210.09;4899204;29;19928;-85
2022/05/01 03:04:35;;;;;;;;;;;;;;;11.66;85.47;95212.47;4898916;29;20380;-84
2022/05/01 03:07:04;;;;;;;;;;;;;;;11.70;84.54;95213.88;4898761;29;19932;-85
2022/05/01 03:09:30;;;;;;;;;;;;;;;11.73;83.77;95208.34;4898939;29;19928;-85
2022/05/01 03:11:57;;;;;;;;;;;;;;;11.80;84.12;95208.69;4898886;29;19934;-85
2022/05/01 03:14:24;;;;;;;;;;;;;;;11.78;83.20;95205.34;4898866;29;19927;-85
2022/05/01 03:16:50;;;;;;;;;;;;;;;11.80;82.99;95208.69;4898119;29;19927;-85
2022/05/01 03:22:12;;;;;;;;;;;;;;;11.72;83.21;95217.19;4896814;29;20422;-85
2022/05/01 03:24:39;;;;;;;;;;;;;;;11.65;82.76;95218.69;4881069;29;19927;-85
2022/05/01 03:27:06;;;;;;;;;;;;;;;11.60;82.91;95222.66;4898526;29;19933;-85
2022/05/01 03:29:33;;;;;;;;;;;;;;;11.53;83.06;95224.94;4898619;29;19935;-85
2022/05/01 03:32:00;;;;;;;;;;;;;;;11.50;83.22;95222.56;4896483;29;19928;-85
2022/05/01 03:34:29;;;;;;;;;;;;;;;11.50;83.29;95230.47;4898448;29;19931;-84
2022/05/01 03:36:56;;;;;;;;;;;;;;;11.40;82.91;95238.28;4898741;29;19934;-85
2022/05/01 03:39:23;;;;;;;;;;;;;;;11.25;84.19;95233.44;4898178;29;19928;-84
2022/05/01 03:41:49;;;;;;;;;;;;;;;11.27;83.49;95229.72;4898644;29;19935;-85
2022/05/01 03:44:16;;;;;;;;;;;;;;;11.16;84.45;95233.22;4898168;29;19928;-85
2022/05/01 03:46:42;;;;;;;;;;;;;;;11.21;84.50;95232.03;4898264;29;19932;-84
2022/05/01 03:49:10;;;;;;;;;;;;;;;11.24;84.55;95245.75;4896241;29;20303;-85
2022/05/01 03:51:38;;;;;;;;;;;;;;;11.32;84.72;95237.25;4898132;29;19983;-85
2022/05/01 03:54:05;;;;;;;;;;;;;;;11.44;84.52;95241.47;4898288;29;20402;-84
2022/05/01 03:56:32;;;;;;;;;;;;;;;11.50;85.28;95243.59;4897807;29;20387;-85
2022/05/01 03:59:00;;;;;;;;;;;;;;;11.74;86.11;95245.97;4897836;29;20406;-84
2022/05/01 04:01:26;;;;;;;;;;;;;;;12.18;85.82;95242.28;4898093;29;19934;-85
2022/05/01 04:03:53;;;;;;;;;;;;;;;12.73;82.63;95253.28;4898409;29;20272;-85
2022/05/01 04:06:20;;;;;;;;;;;;;;;13.32;78.72;95247.19;4897993;29;19927;-85
2022/05/01 04:08:48;;;;;;;;;;;;;;;13.90;76.04;95257.72;4897776;29;20014;-85
2022/05/01 04:11:15;;;;;;;;;;;;;;;14.43;73.09;95262.44;4897807;29;19980;-85
2022/05/01 04:13:43;;;;;;;;;;;;;;;14.77;70.99;95262.75;4897910;29;19982;-85
2022/05/01 04:16:10;;;;;;;;;;;;;;;15.09;70.06;95268.41;4897716;29;20249;-85
2022/05/01 04:18:37;;;;;;;;;;;;;;;15.44;68.73;95277.38;4898073;29;19927;-85
2022/05/01 04:21:03;;;;;;;;;;;;;;;15.71;67.13;95274.69;4897698;29;19928;-85
2022/05/01 04:23:32;;;;;;;;;;;;;;;16.03;66.28;95279.41;4897629;29;19934;-85
2022/05/01 04:26:00;;;;;;;;;;;;;;;16.35;65.18;95277.97;4897465;29;19927;-84
2022/05/01 04:28:26;;;;;;;;;;;;;;;16.51;63.16;95275.44;4897215;29;19935;-85
2022/05/01 04:30:54;;;;;;;;;;;;;;;16.54;63.28;95275.13;4897921;29;19927;-85
2022/05/01 04:33:20;;;;;;;;;;;;;;;16.69;63.38;95265.63;4897779;29;19927;-85
2022/05/01 04:35:48;;;;;;;;;;;;;;;16.91;62.88;95277.50;4897525;29;19928;-85
2022/05/01 04:38:16;;;;;;;;;;;;;;;17.24;61.62;95277.59;4897393;29;20294;-85
2022/05/01 04:40:45;;;;;;;;;;;;;;;17.34;61.35;95270.34;4886239;29;19931;-85
2022/05/01 04:43:13;;;;;;;;;;;;;;;16.95;61.02;95275.34;4879050;29;19928;-85
2022/05/01 04:45:41;;;;;;;;;;;;;;;16.68;62.35;95261.31;4878838;29;19927;-85
2022/05/01 04:48:08;;;;;;;;;;;;;;;16.92;62.07;95259.75;4878677;29;19928;-85
2022/05/01 04:50:35;;;;;;;;;;;;;;;16.54;63.35;95255.75;4878738;29;20295;-85
2022/05/01 04:53:02;;;;;;;;;;;;;;;16.43;63.27;95255.00;4879929;29;19928;-85
2022/05/01 04:55:29;;;;;;;;;;;;;;;16.08;64.71;95261.25;4878816;29;19951;-86
2022/05/01 04:57:56;;;;;;;;;;;;;;;15.55;68.23;95255.97;4878974;29;19928;-84
2022/05/01 05:00:24;;;;;;;;;;;;;;;15.86;67.40;95263.53;4879021;29;19938;-85
2022/05/01 05:02:51;;;;;;;;;;;;;;;16.11;66.92;95265.41;4878907;29;19935;-85
2022/05/01 05:05:18;;;;;;;;;;;;;;;16.10;67.47;95264.56;4878654;29;19928;-85
2022/05/01 05:07:45;;;;;;;;;;;;;;;15.62;68.33;95267.66;4879688;29;19935;-85
2022/05/01 05:10:11;;;;;;;;;;;;;;;15.86;68.60;95267.03;4879306;29;19928;-85
2022/05/01 05:12:42;;;;;;;;;;;;;;;16.03;68.15;95263.53;4879536;29;19928;-84
2022/05/01 05:15:10;;;;;;;;;;;;;;;15.67;69.95;95267.22;4891787;29;19932;-85
2022/05/01 05:17:38;;;;;;;;;;;;;;;15.55;70.36;95268.38;4879319;29;20354;-85
2022/05/01 05:20:06;;;;;;;;;;;;;;;15.15;72.71;95270.47;4878685;29;19935;-84
2022/05/01 05:22:32;;;;;;;;;;;;;;;15.16;72.59;95268.66;4892971;29;20838;-85
2022/05/01 05:24:59;;;;;;;;;;;;;;;14.56;74.29;95266.44;4880041;29;19944;-85
2022/05/01 05:27:26;;;;;;;;;;;;;;;14.36;75.55;95262.16;4879578;29;19928;-85
2022/05/01 05:29:54;;;;;;;;;;;;;;;14.56;75.99;95266.44;4881652;29;20411;-85
2022/05/01 05:32:20;;;;;;;;;;;;;;;14.86;75.00;95272.44;4879942;29;20408;-84
2022/05/01 05:34:49;;;;;;;;;;;;;;;15.03;73.08;95268.16;4878685;29;19953;-85
2022/05/01 05:37:16;;;;;;;;;;;;;;;14.77;74.01;95263.59;4879030;29;19928;-85
2022/05/01 05:39:43;;;;;;;;;;;;;;;15.13;73.84;95266.31;4880901;29;20447;-85
2022/05/01 05:42:09;;;;;;;;;;;;;;;15.11;72.86;95270.91;4881899;29;19928;-84
2022/05/01 05:44:37;;;;;;;;;;;;;;;15.28;72.57;95262.16;4882019;29;19928;-84
2022/05/01 05:47:04;;;;;;;;;;;;;;;15.37;71.89;95271.84;4881737;29;21917;-85
2022/05/01 05:49:31;;;;;;;;;;;;;;;15.38;72.57;95262.94;4881790;29;20299;-85
2022/05/01 05:52:00;;;;;;;;;;;;;;;15.33;71.53;95273.13;4881644;29;19928;-84
2022/05/01 05:54:26;;;;;;;;;;;;;;;15.29;73.19;95261.16;4881378;29;19944;-85
2022/05/01 05:56:53;;;;;;;;;;;;;;;15.24;72.44;95279.31;4881655;29;19931;-84
2022/05/01 05:59:19;;;;;;;;;;;;;;;15.44;72.40;95269.44;4881501;29;20018;-84
2022/05/01 06:01:46;;;;;;;;;;;;;;;15.64;71.18;95273.63;4881853;29;19928;-84
2022/05/01 06:04:13;;;;;;;;;;;;;;;15.43;71.63;95271.25;4882756;29;19931;-85
2022/05/01 06:06:39;;;;;;;;;;;;;;;15.65;71.95;95272.66;4882575;29;20400;-85
2022/05/01 06:09:08;;;;;;;;;;;;;;;16.20;69.81;95280.38;4882330;29;20402;-84
2022/05/01 06:11:35;;;;;;;;;;;;;;;16.46;69.04;95280.34;4882562;29;19934;-80
2022/05/01 06:14:02;;;;;;;;;;;;;;;16.32;69.09;95283.59;4882134;29;19935;-84
2022/05/01 06:16:31;;;;;;;;;;;;;;;16.61;69.03;95286.75;4882392;29;19928;-82
2022/05/01 06:18:58;;;;;;;;;;;;;;;16.46;67.63;95284.81;4882534;29;20018;-84
2022/05/01 06:21:24;;;;;;;;;;;;;;;16.10;68.20;95283.09;4882743;29;19928;-81
2022/05/01 06:23:51;;;;;;;;;;;;;;;16.33;69.00;95279.97;4882755;29;20307;-84
2022/05/01 06:26:19;;;;;;;;;;;;;;;16.57;67.99;95288.06;4894671;29;19934;-84
2022/05/01 06:28:47;;;;;;;;;;;;;;;16.55;66.56;95284.75;4901235;29;20580;-86
2022/05/01 06:31:14;;;;;;;;;;;;;;;16.45;67.39;95291.94;4900825;29;19979;-86
2022/05/01 06:33:41;;;;;;;;;;;;;;;16.79;67.80;95284.06;4900815;29;19927;-89
2022/05/01 06:36:08;;;;;;;;;;;;;;;17.13;65.44;95283.22;4901335;29;19928;-86
2022/05/01 06:38:35;;;;;;;;;;;;;;;17.26;64.32;95287.06;4901233;29;19935;-86
2022/05/01 06:41:03;;;;;;;;;;;;;;;17.65;64.81;95289.16;4900843;29;19928;-86
2022/05/01 06:46:34;;;;;;;;;;;;;;;17.18;63.96;95287.03;4900321;29;20025;-87
2022/05/01 06:49:00;;;;;;;;;;;;;;;17.33;63.93;95285.41;4900917;29;20305;-86
2022/05/01 06:51:27;;;;;;;;;;;;;;;17.83;62.85;95289.03;4899896;29;19931;-86
2022/05/01 06:53:53;;;;;;;;;;;;;;;17.83;60.91;95281.91;4900777;29;19938;-86
2022/05/01 06:56:47;;;;;;;;;;;;;;;17.45;61.92;95293.91;4892798;29;20014;-85
2022/05/01 06:59:13;;;;;;;;;;;;;;;17.21;63.03;95286.72;4878273;29;19932;-83
2022/05/01 07:01:41;;;;;;;;;;;;;;;17.58;63.07;95282.81;4863528;29;19970;-83
2022/05/01 07:04:08;;;;;;;;;;;;;;;17.89;62.34;95278.56;4862924;29;19935;-85
2022/05/01 07:06:35;;;;;;;;;;;;;;;18.07;61.27;95274.94;4863040;29;19985;-84
2022/05/01 07:18:12;;;;;;;;;;;;;;;17.40;62.20;95266.22;4877327;29;20003;-84
2022/05/01 07:20:38;;;;;;;;;;;;;;;17.46;62.59;95273.53;4880623;29;19928;-84
2022/05/01 07:23:06;;;;;;;;;;;;;;;17.72;60.11;95276.09;4880081;29;19927;-85
2022/05/01 07:25:33;;;;;;;;;;;;;;;18.07;58.85;95282.91;4880046;29;19943;-84
2022/05/01 07:27:59;;;;;;;;;;;;;;;18.76;56.91;95274.34;4880146;29;19928;-84
2022/05/01 07:30:26;;;;;;;;;;;;;;;19.23;54.48;95272.69;4880048;29;20399;-84
2022/05/01 07:32:53;;;;;;;;;;;;;;;19.30;54.60;95266.50;4879710;29;19927;-84
2022/05/01 07:35:21;;;;;;;;;;;;;;;19.34;53.54;95261.66;4880071;29;19928;-85
2022/05/01 07:37:48;;;;;;;;;;;;;;;19.47;51.87;95262.75;4879999;29;19950;-85
2022/05/01 07:40:15;;;;;;;;;;;;;;;19.72;50.79;95265.28;4879510;29;20292;-84
2022/05/01 07:42:41;;;;;;;;;;;;;;;20.00;48.68;95266.41;4879799;29;19935;-84
2022/05/01 07:45:09;;;;;;;;;;;;;;;20.32;45.65;95273.31;4879584;29;19927;-84
2022/05/01 07:47:35;;;;;;;;;;;;;;;20.18;46.49;95267.91;4892737;29;19983;-85
2022/05/01 07:50:02;;;;;;;;;;;;;;;20.09;47.85;95267.16;4879655;29;19928;-85
2022/05/01 07:52:32;;;;;;;;;;;;;;;19.84;47.37;95263.88;4879111;29;20192;-84
2022/05/01 07:54:59;;;;;;;;;;;;;;;19.97;49.04;95257.97;4879801;29;19928;-85
2022/05/01 07:57:26;;;;;;;;;;;;;;;19.73;47.50;95254.47;4884589;29;19927;-84
2022/05/01 07:59:53;;;;;;;;;;;;;;;18.85;49.26;95259.22;4898326;29;20026;-85
2022/05/01 08:02:19;;;;;;;;;;;;;;;18.68;49.23;95250.47;4898078;29;19934;-84
2022/05/01 08:04:46;;;;;;;;;;;;;;;18.81;49.12;95258.75;4897895;29;19928;-84
2022/05/01 08:07:13;;;;;;;;;;;;;;;18.74;49.71;95259.56;4897876;29;20014;-84
2022/05/01 08:09:41;;;;;;;;;;;;;;;18.51;47.86;95252.31;4897918;29;19928;-85
2022/05/01 08:12:08;;;;;;;;;;;;;;;18.44;49.90;95251.31;4897860;29;19927;-85
2022/05/01 08:14:35;;;;;;;;;;;;;;;18.45;50.06;95249.47;4897905;29;19938;-84
2022/05/01 08:17:01;;;;;;;;;;;;;;;18.49;49.89;95237.50;4897635;29;19927;-85
2022/05/01 08:22:12;;;;;;;;;;;;;;;18.75;48.94;95239.97;4898014;29;19934;-85
2022/05/01 08:24:38;;;;;;;;;;;;;;;18.95;49.08;95232.41;4898052;29;20302;-84
2022/05/01 08:27:07;;;;;;;;;;;;;;;17.94;48.30;95239.09;4897844;29;19927;-85
2022/05/01 08:29:34;;;;;;;;;;;;;;;18.47;48.96;95234.19;4897840;29;19981;-83
2022/05/01 08:32:01;;;;;;;;;;;;;;;18.89;48.38;95220.66;4897854;29;19937;-85
2022/05/01 08:34:28;;;;;;;;;;;;;;;19.23;45.40;95225.63;4897994;29;19927;-84
2022/05/01 08:36:54;;;;;;;;;;;;;;;19.47;45.62;95222.00;4897745;29;19932;-85
2022/05/01 08:39:21;;;;;;;;;;;;;;;19.77;45.33;95226.47;4898893;29;19951;-84
2022/05/01 08:41:48;;;;;;;;;;;;;;;20.02;44.67;95221.78;4899446;29;19927;-84
2022/05/01 08:44:16;;;;;;;;;;;;;;;19.64;43.64;95217.41;4897577;29;19928;-84
2022/05/01 08:46:52;;;;;;;;;;;;;;;19.68;41.94;95229.38;4897833;29;19928;-83
2022/05/01 08:49:19;;;;;;;;;;;;;;;19.53;42.76;95218.66;4897843;29;20304;-84
2022/05/01 08:51:46;;;;;;;;;;;;;;;19.54;41.01;95212.31;4897588;29;19927;-83
2022/05/01 08:54:13;;;;;;;;;;;;;;;19.44;41.99;95212.53;4897826;29;19927;-84
2022/05/01 08:56:42;;;;;;;;;;;;;;;19.21;44.04;95208.19;4897345;29;20292;-83
2022/05/01 08:59:09;;;;;;;;;;;;;;;19.27;43.37;95212.78;4897704;29;20269;-83
2022/05/01 09:01:38;;;;;;;;;;;;;;;18.74;44.00;95203.75;4897226;29;19950;-84
2022/05/01 09:04:06;;;;;;;;;;;;;;;18.67;43.07;95206.25;4897653;29;19942;-84
2022/05/01 09:06:34;;;;;;;;;;;;;;;18.73;42.61;95204.75;4879557;29;20023;-84
2022/05/01 09:09:05;;;;;;;;;;;;;;;18.58;41.50;95202.78;4897219;29;19927;-84
2022/05/01 09:14:17;;;;;;;;;;;;;;;18.36;42.64;95202.69;4899376;29;19934;-84
2022/05/01 09:17:05;;;;;;;;;;;;;;;18.58;41.75;95197.47;4899061;29;19991;-84
2022/05/01 09:19:32;;;;;;;;;;;;;;;18.84;41.65;95188.44;4900786;29;19928;-83
2022/05/01 09:22:00;;;;;;;;;;;;;;;19.11;42.57;95182.63;4901346;29;19935;-84
2022/05/01 09:24:28;;;;;;;;;;;;;;;19.04;42.21;95184.31;4901414;29;20327;-84
2022/05/01 09:26:55;;;;;;;;;;;;;;;18.95;42.59;95181.88;4901107;29;20304;-83
2022/05/01 09:29:22;;;;;;;;;;;;;;;18.16;41.92;95175.66;4901040;29;19954;-84
2022/05/01 09:31:52;;;;;;;;;;;;;;;18.25;41.36;95170.16;4900983;29;19927;-83
2022/05/01 09:34:19;;;;;;;;;;;;;;;18.57;41.88;95163.91;4900854;29;19928;-84
2022/05/01 09:36:46;;;;;;;;;;;;;;;18.45;40.12;95164.44;4900931;29;19934;-84
2022/05/01 09:39:17;;;;;;;;;;;;;;;18.43;40.30;95156.66;4900827;29;19975;-84
2022/05/01 09:41:44;;;;;;;;;;;;;;;18.59;37.53;95163.75;4900564;29;20262;-84
2022/05/01 09:44:14;;;;;;;;;;;;;;;18.76;39.82;95161.84;4900704;29;19934;-84
2022/05/01 09:46:41;;;;;;;;;;;;;;;18.72;39.33;95149.91;4900702;29;19960;-84
2022/05/01 09:49:10;;;;;;;;;;;;;;;18.55;38.94;95133.19;4900419;29;19943;-85
2022/05/01 09:51:39;;;;;;;;;;;;;;;18.66;39.36;95147.97;4900446;29;19974;-84
2022/05/01 09:54:06;;;;;;;;;;;;;;;18.65;37.56;95143.63;4900211;29;19928;-84
2022/05/01 09:56:43;;;;;;;;;;;;;;;18.49;36.50;95140.00;4901048;29;19950;-84
2022/05/01 09:59:10;;;;;;;;;;;;;;;18.64;36.77;95134.00;4900217;29;19927;-83
2022/05/01 10:01:36;;;;;;;;;;;;;;;18.93;36.96;95141.34;4900586;29;19934;-84
2022/05/01 10:04:03;;;;;;;;;;;;;;;19.08;38.09;95135.09;4900551;29;19936;-84
2022/05/01 10:06:32;;;;;;;;;;;;;;;19.26;38.33;95123.34;4900499;29;20387;-84
2022/05/01 10:09:00;;;;;;;;;;;;;;;19.54;38.57;95131.63;4900376;29;19934;-85
2022/05/01 10:11:29;;;;;;;;;;;;;;;19.53;35.88;95122.81;4900339;29;20021;-85
2022/05/01 10:13:56;;;;;;;;;;;;;;;19.65;35.15;95121.38;4900215;29;19935;-82
2022/05/01 10:16:23;;;;;;;;;;;;;;;19.52;36.63;95121.13;4900173;29;19934;-84
2022/05/01 10:18:50;;;;;;;;;;;;;;;19.53;37.82;95112.16;4900114;29;20367;-85
2022/05/01 10:21:17;;;;;;;;;;;;;;;19.27;36.21;95111.69;4900171;29;19927;-84
2022/05/01 10:23:46;;;;;;;;;;;;;;;19.30;36.13;95106.00;4900256;29;19934;-85
2022/05/01 10:26:16;;;;;;;;;;;;;;;19.57;36.73;95096.66;4898388;29;19927;-84
2022/05/01 10:28:57;;;;;;;;;;;;;;;19.79;38.16;95106.44;4898021;29;20368;-85
2022/05/01 10:34:28;;;;;;;;;;;;;;;19.86;35.33;95094.06;4899822;29;20307;-84
2022/05/01 10:37:18;;;;;;;;;;;;;;;19.89;37.06;95084.88;4899693;29;19931;-85
2022/05/01 10:39:47;;;;;;;;;;;;;;;20.18;38.21;95084.06;4880248;29;19931;-84
2022/05/01 10:42:32;;;;;;;;;;;;;;;20.22;35.73;95091.50;4879078;29;19934;-81
2022/05/01 10:44:58;;;;;;;;;;;;;;;20.35;38.81;95075.69;4878164;29;19928;-82
2022/05/01 10:47:36;;;;;;;;;;;;;;;20.16;36.64;95080.75;4878424;29;19960;-80
2022/05/01 10:50:06;;;;;;;;;;;;;;;19.68;36.63;95067.78;4878349;29;20349;-83
2022/05/01 10:52:33;;;;;;;;;;;;;;;19.63;38.20;95074.63;4878970;29;19928;-82
2022/05/01 10:55:04;;;;;;;;;;;;;;;18.94;37.43;95064.03;4880003;29;20036;-82
2022/05/01 10:57:31;;;;;;;;;;;;;;;19.06;39.17;95067.94;4880074;29;19972;-82
2022/05/01 11:00:05;;;;;;;;;;;;;;;19.02;37.93;95071.13;4879961;29;19928;-83
2022/05/01 11:02:35;;;;;;;;;;;;;;;18.87;38.39;95066.59;4877952;29;20352;-81
2022/05/01 11:05:01;;;;;;;;;;;;;;;18.56;38.55;95053.28;4877878;29;20022;-82
2022/05/01 11:07:29;;;;;;;;;;;;;;;18.70;39.87;95059.72;4877975;29;20318;-82
2022/05/01 11:09:56;;;;;;;;;;;;;;;18.68;40.33;95052.91;4877662;29;19927;-84
2022/05/01 11:12:26;;;;;;;;;;;;;;;18.73;39.78;95053.22;4878428;29;19934;-89
2022/05/01 11:14:54;;;;;;;;;;;;;;;19.05;39.62;95049.50;4880073;29;19935;-84
2022/05/01 11:17:50;;;;;;;;;;;;;;;19.12;38.18;95045.13;4898132;29;19927;-84
2022/05/01 11:20:30;;;;;;;;;;;;;;;19.01;39.01;95042.88;4899978;29;19928;-81
2022/05/01 11:35:11;;;;;;;;;;;;;;;19.52;35.28;95035.13;4898458;29;19938;-82
2022/05/01 11:37:47;;;;;;;;;;;;;;;19.75;35.30;95033.25;4899422;29;20360;-81
2022/05/01 11:40:26;;;;;;;;;;;;;;;19.45;36.49;95035.03;4900473;29;20245;-83
2022/05/01 11:42:53;;;;;;;;;;;;;;;19.58;37.02;95023.78;4900287;29;19991;-92
2022/05/01 11:45:22;;;;;;;;;;;;;;;19.59;38.63;95020.94;4899498;29;19934;-81
2022/05/01 11:47:51;;;;;;;;;;;;;;;19.69;39.91;95021.50;4899659;29;19928;-82
2022/05/01 12:04:37;;;;;;;;;;;;;;;18.85;40.39;95015.41;4899402;29;20065;-81
2022/05/01 12:07:12;;;;;;;;;;;;;;;18.91;41.29;95015.69;4897722;29;19934;-81
2022/05/01 12:09:46;;;;;;;;;;;;;;;19.02;40.97;95005.47;4899303;29;19927;-82
2022/05/01 12:12:19;;;;;;;;;;;;;;;19.02;41.52;95002.81;4899632;29;20386;-81
2022/05/01 12:14:49;;;;;;;;;;;;;;;19.09;40.88;95006.41;4851170;29;19934;-81
2022/05/01 12:17:19;;;;;;;;;;;;;;;19.05;41.13;94996.28;4899017;29;19928;-81
2022/05/01 12:19:47;;;;;;;;;;;;;;;19.06;40.04;94996.13;4899240;29;19931;-82
2022/05/01 12:22:14;;;;;;;;;;;;;;;19.01;41.27;94990.50;4899503;29;19983;-83
2022/05/01 12:24:41;;;;;;;;;;;;;;;18.92;42.58;94991.59;4899445;29;19928;-82
2022/05/01 12:27:08;;;;;;;;;;;;;;;18.82;41.37;94986.53;4899416;29;19928;-84
2022/05/01 12:29:38;;;;;;;;;;;;;;;18.88;42.28;94990.31;4899217;29;19957;-84
2022/05/01 12:35:10;;;;;;;;;;;;;;;18.21;41.77;94976.75;4901632;29;19926;-88
2022/05/01 12:37:38;;;;;;;;;;;;;;;18.05;41.53;94976.84;4897677;29;19950;-83
2022/05/01 12:40:07;;;;;;;;;;;;;;;17.98;41.83;94979.38;4898639;29;20392;-84
2022/05/01 12:45:34;;;;;;;;;;;;;;;17.80;42.01;94963.69;4898862;29;19938;-86
2022/05/01 12:48:02;;;;;;;;;;;;;;;17.92;42.22;94959.63;4898358;29;19927;-84
2022/05/01 12:50:29;;;;;;;;;;;;;;;17.95;42.51;94961.97;4898934;29;19927;-84
2022/05/01 12:53:00;;;;;;;;;;;;;;;18.05;42.02;94961.75;4898906;29;19932;-84
2022/05/01 12:55:31;;;;;;;;;;;;;;;18.10;42.10;94964.69;4899314;29;19931;-80
2022/05/01 12:57:58;;;;;;;;;;;;;;;18.19;42.48;94954.84;4898940;29;19934;-80
2022/05/01 13:00:36;;;;;;;;;;;;;;;18.21;42.48;94961.66;4898730;29;19928;-80
2022/05/01 13:03:16;;;;;;;;;;;;;;;18.27;42.73;94960.13;4899374;29;19927;-80
2022/05/01 13:05:43;;;;;;;;;;;;;;;18.01;40.51;94959.59;4898816;29;19934;-80
2022/05/01 13:08:16;;;;;;;;;;;;;;;18.11;40.98;94952.25;4898697;29;19983;-80
2022/05/01 13:10:43;;;;;;;;;;;;;;;18.08;40.70;94961.38;4898857;29;19927;-80
2022/05/01 13:13:09;;;;;;;;;;;;;;;18.17;42.16;94955.03;4899230;29;19934;-80
2022/05/01 13:15:38;;;;;;;;;;;;;;;18.17;40.92;94954.19;4899074;29;19932;-80
2022/05/01 13:18:05;;;;;;;;;;;;;;;18.11;42.14;94944.28;4899297;29;19928;-80
2022/05/01 13:20:32;;;;;;;;;;;;;;;18.18;40.91;94950.53;4899156;29;19935;-80
2022/05/01 13:22:58;;;;;;;;;;;;;;;17.99;40.98;94954.47;4897879;29;19927;-81
2022/05/01 13:25:25;;;;;;;;;;;;;;;17.98;42.00;94944.84;4897576;29;19927;-80
2022/05/01 13:27:51;;;;;;;;;;;;;;;18.03;41.41;94942.50;4897365;29;19943;-81
2022/05/01 13:30:19;;;;;;;;;;;;;;;18.00;42.26;94934.06;4897436;29;20410;-80
2022/05/01 13:32:47;;;;;;;;;;;;;;;17.99;41.40;94929.75;4897047;29;19951;-80
2022/05/01 13:35:15;;;;;;;;;;;;;;;18.11;41.55;94937.13;4897399;29;19927;-80
2022/05/01 13:37:41;;;;;;;;;;;;;;;18.03;42.14;94936.38;4895764;29;19927;-81
2022/05/01 13:45:42;;;;;;;;;;;;;;;18.32;41.50;94933.84;4876195;29;20360;-80
2022/05/01 13:48:11;;;;;;;;;;;;;;;18.40;41.60;94930.31;4829846;29;20048;-80
2022/05/01 13:50:39;;;;;;;;;;;;;;;18.41;42.46;94919.50;4875850;29;19928;-80
2022/05/01 13:53:09;;;;;;;;;;;;;;;18.35;41.19;94928.19;4875961;29;19928;-80
2022/05/01 13:55:36;;;;;;;;;;;;;;;18.05;39.60;94934.34;4877487;29;19931;-80
2022/05/01 13:58:02;;;;;;;;;;;;;;;18.14;40.29;94926.16;4831561;29;19935;-80
2022/05/01 14:00:30;;;;;;;;;;;;;;;18.14;40.39;94926.16;4879323;29;19934;-80